sensor_id;sensor_type;location;lat;lon;timestamp;temperature;humidity
21039;DHT22;10678;51.002;4.786;2022-09-09T00:00:24;16.10;99.90
21039;DHT22;10678;51.002;4.786;2022-09-09T00:03:06;16.10;99.90
21039;DHT22;10678;51.002;4.786;2022-09-09T00:05:46;16.00;99.90
21039;DHT22;10678;51.002;4.786;2022-09-09T00:08:21;16.10;99.90
21039;DHT22;10678;51.002;4.786;2022-09-09T00:10:56;16.10;99.90
21039;DHT22;10678;51.002;4.786;2022-09-09T00:13:32;16.10;99.90
21039;DHT22;10678;51.002;4.786;2022-09-09T00:16:25;16.00;99.90
21039;DHT22;10678;51.002;4.786;2022-09-09T00:19:07;16.00;99.90
21039;DHT22;10678;51.002;4.786;2022-09-09T00:21:38;16.00;99.90
21039;DHT22;10678;51.002;4.786;2022-09-09T00:24:24;16.10;99.90
21039;DHT22;10678;51.002;4.786;2022-09-09T00:26:56;16.10;99.90
21039;DHT22;10678;51.002;4.786;2022-09-09T00:29:41;16.10;99.90
21039;DHT22;10678;51.002;4.786;2022-09-09T00:32:18;16.00;99.90
21039;DHT22;10678;51.002;4.786;2022-09-09T00:34:52;16.10;99.90
21039;DHT22;10678;51.002;4.786;2022-09-09T00:37:20;16.10;99.90
21039;DHT22;10678;51.002;4.786;2022-09-09T00:39:47;16.00;99.90
21039;DHT22;10678;51.002;4.786;2022-09-09T00:42:26;16.00;99.90
21039;DHT22;10678;51.002;4.786;2022-09-09T00:47:53;16.00;99.90
21039;DHT22;10678;51.002;4.786;2022-09-09T00:53:22;16.00;99.90
21039;DHT22;10678;51.002;4.786;2022-09-09T00:58:33;15.90;99.90
21039;DHT22;10678;51.002;4.786;2022-09-09T01:01:10;15.90;99.90
21039;DHT22;10678;51.002;4.786;2022-09-09T01:03:40;15.90;99.90
21039;DHT22;10678;51.002;4.786;2022-09-09T01:06:33;16.00;99.90
21039;DHT22;10678;51.002;4.786;2022-09-09T01:09:46;16.00;99.90
21039;DHT22;10678;51.002;4.786;2022-09-09T01:12:25;16.00;99.90
21039;DHT22;10678;51.002;4.786;2022-09-09T01:15:00;16.00;99.90
21039;DHT22;10678;51.002;4.786;2022-09-09T01:17:50;16.00;99.90
21039;DHT22;10678;51.002;4.786;2022-09-09T01:20:23;16.00;99.90
21039;DHT22;10678;51.002;4.786;2022-09-09T01:28:14;16.10;99.90
21039;DHT22;10678;51.002;4.786;2022-09-09T01:30:42;16.10;99.90
21039;DHT22;10678;51.002;4.786;2022-09-09T01:33:13;16.10;99.90
21039;DHT22;10678;51.002;4.786;2022-09-09T01:38:14;16.20;99.90
21039;DHT22;10678;51.002;4.786;2022-09-09T01:40:40;16.20;99.90
21039;DHT22;10678;51.002;4.786;2022-09-09T01:43:06;16.20;99.90
21039;DHT22;10678;51.002;4.786;2022-09-09T01:45:33;16.20;99.90
21039;DHT22;10678;51.002;4.786;2022-09-09T01:47:59;16.20;99.90
21039;DHT22;10678;51.002;4.786;2022-09-09T01:50:25;16.30;99.90
21039;DHT22;10678;51.002;4.786;2022-09-09T01:52:56;16.20;99.90
21039;DHT22;10678;51.002;4.786;2022-09-09T01:55:42;16.30;99.90
21039;DHT22;10678;51.002;4.786;2022-09-09T01:58:18;16.20;99.90
21039;DHT22;10678;51.002;4.786;2022-09-09T02:01:53;16.20;99.90
21039;DHT22;10678;51.002;4.786;2022-09-09T02:03:57;16.20;99.90
21039;DHT22;10678;51.002;4.786;2022-09-09T02:06:31;16.10;99.90
21039;DHT22;10678;51.002;4.786;2022-09-09T02:09:02;16.10;99.90
21039;DHT22;10678;51.002;4.786;2022-09-09T02:11:29;16.10;99.90
21039;DHT22;10678;51.002;4.786;2022-09-09T02:14:02;16.00;99.90
21039;DHT22;10678;51.002;4.786;2022-09-09T02:16:37;16.00;99.90
21039;DHT22;10678;51.002;4.786;2022-09-09T02:19:06;16.00;99.90
21039;DHT22;10678;51.002;4.786;2022-09-09T02:21:34;16.10;99.90
21039;DHT22;10678;51.002;4.786;2022-09-09T02:24:03;16.00;99.90
21039;DHT22;10678;51.002;4.786;2022-09-09T02:26:31;16.00;99.90
21039;DHT22;10678;51.002;4.786;2022-09-09T02:29:02;16.10;99.90
21039;DHT22;10678;51.002;4.786;2022-09-09T02:31:28;16.10;99.90
21039;DHT22;10678;51.002;4.786;2022-09-09T02:33:59;16.10;99.90
21039;DHT22;10678;51.002;4.786;2022-09-09T02:36:29;16.10;99.90
21039;DHT22;10678;51.002;4.786;2022-09-09T02:38:56;16.00;99.90
21039;DHT22;10678;51.002;4.786;2022-09-09T02:41:33;16.10;99.90
21039;DHT22;10678;51.002;4.786;2022-09-09T02:43:59;16.00;99.90
21039;DHT22;10678;51.002;4.786;2022-09-09T02:54:37;16.00;99.90
21039;DHT22;10678;51.002;4.786;2022-09-09T02:57:10;16.00;99.90
21039;DHT22;10678;51.002;4.786;2022-09-09T02:59:37;16.00;99.90
21039;DHT22;10678;51.002;4.786;2022-09-09T03:02:03;16.00;99.90
21039;DHT22;10678;51.002;4.786;2022-09-09T03:04:29;16.00;99.90
21039;DHT22;10678;51.002;4.786;2022-09-09T03:06:57;15.90;99.90
21039;DHT22;10678;51.002;4.786;2022-09-09T03:09:22;15.90;99.90
21039;DHT22;10678;51.002;4.786;2022-09-09T03:11:48;16.00;99.90
21039;DHT22;10678;51.002;4.786;2022-09-09T03:14:15;16.00;99.90
21039;DHT22;10678;51.002;4.786;2022-09-09T03:16:41;16.00;99.90
21039;DHT22;10678;51.002;4.786;2022-09-09T03:19:08;16.00;99.90
21039;DHT22;10678;51.002;4.786;2022-09-09T03:21:34;16.00;99.90
21039;DHT22;10678;51.002;4.786;2022-09-09T03:24:00;16.00;99.90
21039;DHT22;10678;51.002;4.786;2022-09-09T03:26:25;16.10;99.90
21039;DHT22;10678;51.002;4.786;2022-09-09T03:28:51;16.10;99.90
21039;DHT22;10678;51.002;4.786;2022-09-09T03:31:18;16.20;99.90
21039;DHT22;10678;51.002;4.786;2022-09-09T03:33:44;16.20;99.90
21039;DHT22;10678;51.002;4.786;2022-09-09T03:36:10;16.20;99.90
21039;DHT22;10678;51.002;4.786;2022-09-09T03:38:36;16.10;99.90
21039;DHT22;10678;51.002;4.786;2022-09-09T03:41:02;16.20;99.90
21039;DHT22;10678;51.002;4.786;2022-09-09T03:43:28;16.20;99.90
21039;DHT22;10678;51.002;4.786;2022-09-09T03:45:55;16.20;99.90
21039;DHT22;10678;51.002;4.786;2022-09-09T03:48:24;16.10;99.90
21039;DHT22;10678;51.002;4.786;2022-09-09T03:50:52;16.10;99.90
21039;DHT22;10678;51.002;4.786;2022-09-09T03:53:20;16.20;99.90
21039;DHT22;10678;51.002;4.786;2022-09-09T03:55:48;16.10;99.90
21039;DHT22;10678;51.002;4.786;2022-09-09T03:58:15;16.10;99.90
21039;DHT22;10678;51.002;4.786;2022-09-09T04:00:41;16.10;99.90
21039;DHT22;10678;51.002;4.786;2022-09-09T04:03:11;16.20;99.90
21039;DHT22;10678;51.002;4.786;2022-09-09T04:05:39;16.20;99.90
21039;DHT22;10678;51.002;4.786;2022-09-09T04:08:07;16.20;99.90
21039;DHT22;10678;51.002;4.786;2022-09-09T04:10:34;16.10;99.90
21039;DHT22;10678;51.002;4.786;2022-09-09T04:13:02;16.20;99.90
21039;DHT22;10678;51.002;4.786;2022-09-09T04:15:27;16.10;99.90
21039;DHT22;10678;51.002;4.786;2022-09-09T04:17:53;16.10;99.90
21039;DHT22;10678;51.002;4.786;2022-09-09T04:20:19;16.10;99.90
21039;DHT22;10678;51.002;4.786;2022-09-09T04:22:44;16.10;99.90
21039;DHT22;10678;51.002;4.786;2022-09-09T04:25:10;16.10;99.90
21039;DHT22;10678;51.002;4.786;2022-09-09T04:27:36;16.00;99.90
21039;DHT22;10678;51.002;4.786;2022-09-09T04:30:01;16.00;99.90
21039;DHT22;10678;51.002;4.786;2022-09-09T04:32:27;15.90;99.90
21039;DHT22;10678;51.002;4.786;2022-09-09T04:34:53;16.00;99.90
21039;DHT22;10678;51.002;4.786;2022-09-09T04:37:18;16.00;99.90
21039;DHT22;10678;51.002;4.786;2022-09-09T04:39:44;16.00;99.90
21039;DHT22;10678;51.002;4.786;2022-09-09T04:42:10;16.00;99.90
21039;DHT22;10678;51.002;4.786;2022-09-09T04:44:38;16.00;99.90
21039;DHT22;10678;51.002;4.786;2022-09-09T04:47:04;16.00;99.90
21039;DHT22;10678;51.002;4.786;2022-09-09T04:49:30;16.10;99.90
21039;DHT22;10678;51.002;4.786;2022-09-09T04:51:56;16.10;99.90
21039;DHT22;10678;51.002;4.786;2022-09-09T04:54:22;16.20;99.90
21039;DHT22;10678;51.002;4.786;2022-09-09T04:56:50;16.30;99.90
21039;DHT22;10678;51.002;4.786;2022-09-09T04:59:15;16.20;99.90
21039;DHT22;10678;51.002;4.786;2022-09-09T05:01:41;16.20;99.90
21039;DHT22;10678;51.002;4.786;2022-09-09T05:04:07;16.20;99.90
21039;DHT22;10678;51.002;4.786;2022-09-09T05:06:34;16.20;99.90
21039;DHT22;10678;51.002;4.786;2022-09-09T05:09:01;16.20;99.90
21039;DHT22;10678;51.002;4.786;2022-09-09T05:11:29;16.20;99.90
21039;DHT22;10678;51.002;4.786;2022-09-09T05:13:55;16.20;99.90
21039;DHT22;10678;51.002;4.786;2022-09-09T05:16:22;16.20;99.90
21039;DHT22;10678;51.002;4.786;2022-09-09T05:18:48;16.10;99.90
21039;DHT22;10678;51.002;4.786;2022-09-09T05:21:17;16.20;99.90
21039;DHT22;10678;51.002;4.786;2022-09-09T05:23:42;16.20;99.90
21039;DHT22;10678;51.002;4.786;2022-09-09T05:26:14;16.10;99.90
21039;DHT22;10678;51.002;4.786;2022-09-09T05:28:40;16.20;99.90
21039;DHT22;10678;51.002;4.786;2022-09-09T05:31:08;16.20;99.90
21039;DHT22;10678;51.002;4.786;2022-09-09T05:33:34;16.20;99.90
21039;DHT22;10678;51.002;4.786;2022-09-09T05:36:02;16.20;99.90
21039;DHT22;10678;51.002;4.786;2022-09-09T05:38:30;16.10;99.90
21039;DHT22;10678;51.002;4.786;2022-09-09T05:40:56;16.10;99.90
21039;DHT22;10678;51.002;4.786;2022-09-09T05:43:23;16.10;99.90
21039;DHT22;10678;51.002;4.786;2022-09-09T05:48:38;16.30;99.90
21039;DHT22;10678;51.002;4.786;2022-09-09T05:51:05;16.30;99.90
21039;DHT22;10678;51.002;4.786;2022-09-09T05:53:32;16.30;99.90
21039;DHT22;10678;51.002;4.786;2022-09-09T05:56:16;16.40;99.90
21039;DHT22;10678;51.002;4.786;2022-09-09T05:58:46;16.50;99.90
21039;DHT22;10678;51.002;4.786;2022-09-09T06:01:19;16.60;99.90
21039;DHT22;10678;51.002;4.786;2022-09-09T06:03:46;16.50;99.90
21039;DHT22;10678;51.002;4.786;2022-09-09T06:06:15;16.60;99.90
21039;DHT22;10678;51.002;4.786;2022-09-09T06:08:42;16.60;99.90
21039;DHT22;10678;51.002;4.786;2022-09-09T06:11:15;16.70;99.90
21039;DHT22;10678;51.002;4.786;2022-09-09T06:13:41;16.80;99.90
21039;DHT22;10678;51.002;4.786;2022-09-09T06:16:11;17.00;99.90
21039;DHT22;10678;51.002;4.786;2022-09-09T06:18:38;17.00;99.90
21039;DHT22;10678;51.002;4.786;2022-09-09T06:21:06;17.10;99.90
21039;DHT22;10678;51.002;4.786;2022-09-09T06:23:33;17.10;99.90
21039;DHT22;10678;51.002;4.786;2022-09-09T06:28:27;17.00;99.90
21039;DHT22;10678;51.002;4.786;2022-09-09T06:31:00;17.10;99.90
21039;DHT22;10678;51.002;4.786;2022-09-09T06:33:26;17.00;99.90
21039;DHT22;10678;51.002;4.786;2022-09-09T06:35:54;17.00;99.90
21039;DHT22;10678;51.002;4.786;2022-09-09T06:38:20;17.00;99.90
21039;DHT22;10678;51.002;4.786;2022-09-09T06:40:54;17.00;99.90
21039;DHT22;10678;51.002;4.786;2022-09-09T06:43:22;17.10;99.90
21039;DHT22;10678;51.002;4.786;2022-09-09T06:48:20;17.20;99.90
21039;DHT22;10678;51.002;4.786;2022-09-09T06:50:45;17.20;99.90
21039;DHT22;10678;51.002;4.786;2022-09-09T06:53:11;17.10;99.90
21039;DHT22;10678;51.002;4.786;2022-09-09T06:55:37;17.20;99.90
21039;DHT22;10678;51.002;4.786;2022-09-09T06:58:08;17.20;99.90
21039;DHT22;10678;51.002;4.786;2022-09-09T07:00:33;17.20;99.90
21039;DHT22;10678;51.002;4.786;2022-09-09T07:02:59;17.40;99.90
21039;DHT22;10678;51.002;4.786;2022-09-09T07:05:25;17.70;99.90
21039;DHT22;10678;51.002;4.786;2022-09-09T07:07:51;17.80;99.90
21039;DHT22;10678;51.002;4.786;2022-09-09T07:10:17;17.90;99.90
21039;DHT22;10678;51.002;4.786;2022-09-09T07:12:43;18.10;99.90
21039;DHT22;10678;51.002;4.786;2022-09-09T07:15:09;18.00;99.90
21039;DHT22;10678;51.002;4.786;2022-09-09T07:17:35;18.10;99.90
21039;DHT22;10678;51.002;4.786;2022-09-09T07:20:01;18.10;99.90
21039;DHT22;10678;51.002;4.786;2022-09-09T07:22:28;18.00;99.90
21039;DHT22;10678;51.002;4.786;2022-09-09T07:24:53;18.00;99.90
21039;DHT22;10678;51.002;4.786;2022-09-09T07:27:19;18.10;99.90
21039;DHT22;10678;51.002;4.786;2022-09-09T07:29:44;18.10;99.90
21039;DHT22;10678;51.002;4.786;2022-09-09T07:32:11;17.90;99.90
21039;DHT22;10678;51.002;4.786;2022-09-09T07:34:36;17.90;99.90
21039;DHT22;10678;51.002;4.786;2022-09-09T07:37:02;17.80;99.90
21039;DHT22;10678;51.002;4.786;2022-09-09T07:39:28;17.80;99.90
21039;DHT22;10678;51.002;4.786;2022-09-09T07:41:53;17.70;99.90
21039;DHT22;10678;51.002;4.786;2022-09-09T07:44:24;17.80;99.90
21039;DHT22;10678;51.002;4.786;2022-09-09T07:46:50;17.80;99.90
21039;DHT22;10678;51.002;4.786;2022-09-09T07:49:16;17.90;99.90
21039;DHT22;10678;51.002;4.786;2022-09-09T07:51:45;17.80;99.90
21039;DHT22;10678;51.002;4.786;2022-09-09T07:54:13;17.70;99.90
21039;DHT22;10678;51.002;4.786;2022-09-09T07:56:40;17.70;99.90
21039;DHT22;10678;51.002;4.786;2022-09-09T07:59:07;17.70;99.90
21039;DHT22;10678;51.002;4.786;2022-09-09T08:01:36;17.70;99.90
21039;DHT22;10678;51.002;4.786;2022-09-09T08:04:07;17.90;99.90
21039;DHT22;10678;51.002;4.786;2022-09-09T08:06:37;18.10;99.90
21039;DHT22;10678;51.002;4.786;2022-09-09T08:09:05;18.10;99.90
21039;DHT22;10678;51.002;4.786;2022-09-09T08:11:31;18.10;99.90
21039;DHT22;10678;51.002;4.786;2022-09-09T08:13:58;18.30;99.90
21039;DHT22;10678;51.002;4.786;2022-09-09T08:16:29;18.40;99.90
21039;DHT22;10678;51.002;4.786;2022-09-09T08:18:56;18.60;99.90
21039;DHT22;10678;51.002;4.786;2022-09-09T08:21:28;18.70;99.90
21039;DHT22;10678;51.002;4.786;2022-09-09T08:23:55;18.80;99.90
21039;DHT22;10678;51.002;4.786;2022-09-09T08:26:24;19.30;99.90
21039;DHT22;10678;51.002;4.786;2022-09-09T08:28:51;19.70;99.90
21039;DHT22;10678;51.002;4.786;2022-09-09T08:31:28;19.50;99.90
21039;DHT22;10678;51.002;4.786;2022-09-09T08:33:56;19.50;99.90
21039;DHT22;10678;51.002;4.786;2022-09-09T08:36:24;19.40;99.90
21039;DHT22;10678;51.002;4.786;2022-09-09T08:38:52;19.30;99.90
21039;DHT22;10678;51.002;4.786;2022-09-09T08:41:37;19.10;99.90
21039;DHT22;10678;51.002;4.786;2022-09-09T08:52:25;19.30;99.90
21039;DHT22;10678;51.002;4.786;2022-09-09T08:54:52;19.20;99.90
21039;DHT22;10678;51.002;4.786;2022-09-09T08:57:25;19.30;99.90
21039;DHT22;10678;51.002;4.786;2022-09-09T08:59:52;19.30;99.90
21039;DHT22;10678;51.002;4.786;2022-09-09T09:02:48;19.20;99.90
21039;DHT22;10678;51.002;4.786;2022-09-09T09:05:26;19.00;99.90
21039;DHT22;10678;51.002;4.786;2022-09-09T09:08:17;19.00;99.90
21039;DHT22;10678;51.002;4.786;2022-09-09T09:10:50;19.00;99.90
21039;DHT22;10678;51.002;4.786;2022-09-09T09:13:32;19.00;99.90
21039;DHT22;10678;51.002;4.786;2022-09-09T09:16:10;18.90;99.90
21039;DHT22;10678;51.002;4.786;2022-09-09T09:18:39;18.90;99.90
21039;DHT22;10678;51.002;4.786;2022-09-09T09:23:44;18.90;99.90
21039;DHT22;10678;51.002;4.786;2022-09-09T09:26:10;18.80;99.90
21039;DHT22;10678;51.002;4.786;2022-09-09T09:28:37;18.90;99.90
21039;DHT22;10678;51.002;4.786;2022-09-09T09:31:09;18.70;99.90
21039;DHT22;10678;51.002;4.786;2022-09-09T09:36:11;18.80;99.90
21039;DHT22;10678;51.002;4.786;2022-09-09T09:38:58;18.80;99.90
21039;DHT22;10678;51.002;4.786;2022-09-09T09:41:38;18.90;99.90
21039;DHT22;10678;51.002;4.786;2022-09-09T09:44:04;19.00;99.90
21039;DHT22;10678;51.002;4.786;2022-09-09T09:46:31;19.20;99.90
21039;DHT22;10678;51.002;4.786;2022-09-09T09:49:01;19.30;99.90
21039;DHT22;10678;51.002;4.786;2022-09-09T09:51:30;19.40;99.90
21039;DHT22;10678;51.002;4.786;2022-09-09T09:56:34;19.20;99.90
21039;DHT22;10678;51.002;4.786;2022-09-09T09:59:00;19.20;99.90
21039;DHT22;10678;51.002;4.786;2022-09-09T10:01:27;19.20;99.90
21039;DHT22;10678;51.002;4.786;2022-09-09T10:03:58;19.30;99.90
21039;DHT22;10678;51.002;4.786;2022-09-09T10:06:35;19.40;99.90
21039;DHT22;10678;51.002;4.786;2022-09-09T10:09:04;19.50;99.90
21039;DHT22;10678;51.002;4.786;2022-09-09T10:12:05;19.50;99.90
21039;DHT22;10678;51.002;4.786;2022-09-09T10:14:41;19.50;99.90
21039;DHT22;10678;51.002;4.786;2022-09-09T10:20:24;19.50;99.90
21039;DHT22;10678;51.002;4.786;2022-09-09T10:40:01;19.10;99.90
21039;DHT22;10678;51.002;4.786;2022-09-09T10:42:31;19.20;99.90
21039;DHT22;10678;51.002;4.786;2022-09-09T10:55:59;19.50;99.90
21039;DHT22;10678;51.002;4.786;2022-09-09T10:58:29;19.70;99.90
21039;DHT22;10678;51.002;4.786;2022-09-09T11:01:01;19.90;99.90
21039;DHT22;10678;51.002;4.786;2022-09-09T11:03:33;20.30;99.90
21039;DHT22;10678;51.002;4.786;2022-09-09T11:06:14;20.50;99.90
21039;DHT22;10678;51.002;4.786;2022-09-09T11:08:42;20.80;99.90
21039;DHT22;10678;51.002;4.786;2022-09-09T11:16:50;21.50;99.90
21039;DHT22;10678;51.002;4.786;2022-09-09T11:19:19;21.50;99.90
21039;DHT22;10678;51.002;4.786;2022-09-09T11:21:49;21.50;99.90
21039;DHT22;10678;51.002;4.786;2022-09-09T11:24:23;21.50;99.90
21039;DHT22;10678;51.002;4.786;2022-09-09T11:27:09;21.40;99.90
21039;DHT22;10678;51.002;4.786;2022-09-09T11:38:02;20.90;99.90
21039;DHT22;10678;51.002;4.786;2022-09-09T11:40:31;21.00;99.90
21039;DHT22;10678;51.002;4.786;2022-09-09T11:43:18;21.10;99.90
21039;DHT22;10678;51.002;4.786;2022-09-09T11:45:52;21.40;99.90
21039;DHT22;10678;51.002;4.786;2022-09-09T11:51:09;21.60;99.90
21039;DHT22;10678;51.002;4.786;2022-09-09T11:56:34;21.30;99.90
21039;DHT22;10678;51.002;4.786;2022-09-09T11:59:33;21.30;99.90
21039;DHT22;10678;51.002;4.786;2022-09-09T12:02:12;21.70;99.90
21039;DHT22;10678;51.002;4.786;2022-09-09T12:04:46;22.30;99.90
21039;DHT22;10678;51.002;4.786;2022-09-09T12:10:27;22.00;99.90
21039;DHT22;10678;51.002;4.786;2022-09-09T12:12:54;21.80;99.90
21039;DHT22;10678;51.002;4.786;2022-09-09T12:15:23;21.60;99.90
21039;DHT22;10678;51.002;4.786;2022-09-09T12:17:51;21.90;99.90
21039;DHT22;10678;51.002;4.786;2022-09-09T12:23:14;22.70;99.90
21039;DHT22;10678;51.002;4.786;2022-09-09T12:26:03;22.50;99.90
21039;DHT22;10678;51.002;4.786;2022-09-09T12:29:12;22.30;99.90
21039;DHT22;10678;51.002;4.786;2022-09-09T12:37:02;22.20;99.90
21039;DHT22;10678;51.002;4.786;2022-09-09T12:39:39;22.10;99.90
21039;DHT22;10678;51.002;4.786;2022-09-09T12:42:20;22.20;99.90
21039;DHT22;10678;51.002;4.786;2022-09-09T12:44:53;22.80;99.90
21039;DHT22;10678;51.002;4.786;2022-09-09T12:47:21;23.00;99.90
21039;DHT22;10678;51.002;4.786;2022-09-09T12:49:48;22.80;99.90
21039;DHT22;10678;51.002;4.786;2022-09-09T12:54:44;22.40;99.90
21039;DHT22;10678;51.002;4.786;2022-09-09T12:57:13;22.20;99.90
21039;DHT22;10678;51.002;4.786;2022-09-09T12:59:41;22.10;99.90
21039;DHT22;10678;51.002;4.786;2022-09-09T13:02:26;21.90;99.90
21039;DHT22;10678;51.002;4.786;2022-09-09T13:04:53;22.20;99.90
21039;DHT22;10678;51.002;4.786;2022-09-09T13:07:20;22.20;99.90
21039;DHT22;10678;51.002;4.786;2022-09-09T13:09:48;22.40;99.90
21039;DHT22;10678;51.002;4.786;2022-09-09T13:12:22;22.90;99.90
21039;DHT22;10678;51.002;4.786;2022-09-09T13:14:53;23.20;99.90
21039;DHT22;10678;51.002;4.786;2022-09-09T13:17:26;23.40;99.90
21039;DHT22;10678;51.002;4.786;2022-09-09T13:19:54;23.60;99.90
21039;DHT22;10678;51.002;4.786;2022-09-09T13:27:33;23.00;99.90
21039;DHT22;10678;51.002;4.786;2022-09-09T13:29:59;22.90;99.90
21039;DHT22;10678;51.002;4.786;2022-09-09T13:32:26;22.70;99.90
21039;DHT22;10678;51.002;4.786;2022-09-09T13:35:00;23.00;99.90
21039;DHT22;10678;51.002;4.786;2022-09-09T13:37:36;23.60;99.90
21039;DHT22;10678;51.002;4.786;2022-09-09T13:40:04;23.90;99.90
21039;DHT22;10678;51.002;4.786;2022-09-09T13:42:34;24.00;99.90
21039;DHT22;10678;51.002;4.786;2022-09-09T13:45:03;23.80;99.90
21039;DHT22;10678;51.002;4.786;2022-09-09T13:47:34;23.90;99.90
21039;DHT22;10678;51.002;4.786;2022-09-09T13:50:22;23.80;99.90
21039;DHT22;10678;51.002;4.786;2022-09-09T13:52:49;24.00;99.90
21039;DHT22;10678;51.002;4.786;2022-09-09T13:55:17;23.90;99.90
21039;DHT22;10678;51.002;4.786;2022-09-09T14:00:21;23.30;99.90
21039;DHT22;10678;51.002;4.786;2022-09-09T14:02:48;23.40;99.90
21039;DHT22;10678;51.002;4.786;2022-09-09T14:05:14;23.30;99.90
21039;DHT22;10678;51.002;4.786;2022-09-09T14:07:42;23.20;99.90
21039;DHT22;10678;51.002;4.786;2022-09-09T14:10:08;23.20;99.90
21039;DHT22;10678;51.002;4.786;2022-09-09T14:12:34;22.80;99.90
21039;DHT22;10678;51.002;4.786;2022-09-09T14:15:02;22.80;99.90
21039;DHT22;10678;51.002;4.786;2022-09-09T14:17:28;22.30;99.90
21039;DHT22;10678;51.002;4.786;2022-09-09T14:19:56;22.20;99.90
21039;DHT22;10678;51.002;4.786;2022-09-09T14:22:23;22.20;99.90
21039;DHT22;10678;51.002;4.786;2022-09-09T14:24:49;22.20;99.90
21039;DHT22;10678;51.002;4.786;2022-09-09T14:27:15;22.40;99.90
21039;DHT22;10678;51.002;4.786;2022-09-09T14:29:41;22.60;99.90
21039;DHT22;10678;51.002;4.786;2022-09-09T14:32:08;22.60;99.90
21039;DHT22;10678;51.002;4.786;2022-09-09T14:34:34;22.60;99.90
21039;DHT22;10678;51.002;4.786;2022-09-09T14:37:00;22.70;99.90
21039;DHT22;10678;51.002;4.786;2022-09-09T14:39:26;22.70;99.90
21039;DHT22;10678;51.002;4.786;2022-09-09T14:41:52;22.90;99.90
21039;DHT22;10678;51.002;4.786;2022-09-09T14:44:17;23.00;99.90
21039;DHT22;10678;51.002;4.786;2022-09-09T14:46:43;23.20;99.90
21039;DHT22;10678;51.002;4.786;2022-09-09T14:49:09;23.00;99.90
21039;DHT22;10678;51.002;4.786;2022-09-09T14:51:35;22.60;99.90
21039;DHT22;10678;51.002;4.786;2022-09-09T14:54:01;22.50;99.90
21039;DHT22;10678;51.002;4.786;2022-09-09T14:56:29;22.60;99.90
21039;DHT22;10678;51.002;4.786;2022-09-09T14:58:57;22.70;99.90
21039;DHT22;10678;51.002;4.786;2022-09-09T15:01:24;22.80;99.90
21039;DHT22;10678;51.002;4.786;2022-09-09T15:03:54;23.10;99.90
21039;DHT22;10678;51.002;4.786;2022-09-09T15:06:21;23.20;99.90
21039;DHT22;10678;51.002;4.786;2022-09-09T15:08:47;23.00;99.90
21039;DHT22;10678;51.002;4.786;2022-09-09T15:11:15;22.90;99.90
21039;DHT22;10678;51.002;4.786;2022-09-09T15:13:43;23.20;99.90
21039;DHT22;10678;51.002;4.786;2022-09-09T15:16:14;23.00;99.90
21039;DHT22;10678;51.002;4.786;2022-09-09T15:18:40;22.90;99.90
21039;DHT22;10678;51.002;4.786;2022-09-09T15:21:18;22.90;99.90
21039;DHT22;10678;51.002;4.786;2022-09-09T15:23:45;22.80;99.90
21039;DHT22;10678;51.002;4.786;2022-09-09T15:26:11;22.60;99.90
21039;DHT22;10678;51.002;4.786;2022-09-09T15:28:39;22.30;99.90
21039;DHT22;10678;51.002;4.786;2022-09-09T15:31:08;22.30;99.90
21039;DHT22;10678;51.002;4.786;2022-09-09T15:33:35;22.40;99.90
21039;DHT22;10678;51.002;4.786;2022-09-09T15:38:38;22.40;99.90
21039;DHT22;10678;51.002;4.786;2022-09-09T15:41:04;22.30;99.90
21039;DHT22;10678;51.002;4.786;2022-09-09T15:43:29;22.30;99.90
21039;DHT22;10678;51.002;4.786;2022-09-09T15:46:00;22.40;99.90
21039;DHT22;10678;51.002;4.786;2022-09-09T15:48:31;22.50;99.90
21039;DHT22;10678;51.002;4.786;2022-09-09T15:51:03;22.60;99.90
21039;DHT22;10678;51.002;4.786;2022-09-09T15:53:29;22.50;99.90
21039;DHT22;10678;51.002;4.786;2022-09-09T15:55:58;22.50;99.90
21039;DHT22;10678;51.002;4.786;2022-09-09T15:58:23;22.40;99.90
21039;DHT22;10678;51.002;4.786;2022-09-09T16:00:49;22.30;99.90
21039;DHT22;10678;51.002;4.786;2022-09-09T16:03:14;22.20;99.90
21039;DHT22;10678;51.002;4.786;2022-09-09T16:05:40;22.20;99.90
21039;DHT22;10678;51.002;4.786;2022-09-09T16:08:06;22.10;99.90
21039;DHT22;10678;51.002;4.786;2022-09-09T16:10:32;21.80;99.90
21039;DHT22;10678;51.002;4.786;2022-09-09T16:12:57;21.70;99.90
21039;DHT22;10678;51.002;4.786;2022-09-09T16:15:24;21.50;99.90
21039;DHT22;10678;51.002;4.786;2022-09-09T16:17:53;21.30;99.90
21039;DHT22;10678;51.002;4.786;2022-09-09T16:20:19;21.20;99.90
21039;DHT22;10678;51.002;4.786;2022-09-09T16:22:45;21.10;99.90
21039;DHT22;10678;51.002;4.786;2022-09-09T16:25:11;20.80;99.90
21039;DHT22;10678;51.002;4.786;2022-09-09T16:27:37;20.90;99.90
21039;DHT22;10678;51.002;4.786;2022-09-09T16:30:03;20.80;99.90
21039;DHT22;10678;51.002;4.786;2022-09-09T16:32:28;20.70;99.90
21039;DHT22;10678;51.002;4.786;2022-09-09T16:34:55;20.60;99.90
21039;DHT22;10678;51.002;4.786;2022-09-09T16:37:20;20.60;99.90
21039;DHT22;10678;51.002;4.786;2022-09-09T16:39:46;20.50;99.90
21039;DHT22;10678;51.002;4.786;2022-09-09T16:42:11;20.40;99.90
21039;DHT22;10678;51.002;4.786;2022-09-09T16:44:37;20.30;99.90
21039;DHT22;10678;51.002;4.786;2022-09-09T16:47:03;20.00;99.90
21039;DHT22;10678;51.002;4.786;2022-09-09T16:49:28;20.10;99.90
21039;DHT22;10678;51.002;4.786;2022-09-09T16:51:58;20.10;99.90
21039;DHT22;10678;51.002;4.786;2022-09-09T16:54:24;20.20;99.90
21039;DHT22;10678;51.002;4.786;2022-09-09T16:56:52;20.30;99.90
21039;DHT22;10678;51.002;4.786;2022-09-09T16:59:19;20.30;99.90
21039;DHT22;10678;51.002;4.786;2022-09-09T17:01:47;20.30;99.90
21039;DHT22;10678;51.002;4.786;2022-09-09T17:04:16;20.30;99.90
21039;DHT22;10678;51.002;4.786;2022-09-09T17:06:46;20.40;99.90
21039;DHT22;10678;51.002;4.786;2022-09-09T17:09:12;20.30;99.90
21039;DHT22;10678;51.002;4.786;2022-09-09T17:11:39;20.30;99.90
21039;DHT22;10678;51.002;4.786;2022-09-09T17:14:05;20.30;99.90
21039;DHT22;10678;51.002;4.786;2022-09-09T17:16:32;20.40;99.90
21039;DHT22;10678;51.002;4.786;2022-09-09T17:19:02;20.30;99.90
21039;DHT22;10678;51.002;4.786;2022-09-09T17:21:30;20.30;99.90
21039;DHT22;10678;51.002;4.786;2022-09-09T17:23:56;20.40;99.90
21039;DHT22;10678;51.002;4.786;2022-09-09T17:26:25;20.30;99.90
21039;DHT22;10678;51.002;4.786;2022-09-09T17:28:52;20.30;99.90
21039;DHT22;10678;51.002;4.786;2022-09-09T17:31:19;20.40;99.90
21039;DHT22;10678;51.002;4.786;2022-09-09T17:33:47;20.30;99.90
21039;DHT22;10678;51.002;4.786;2022-09-09T17:36:33;20.50;99.90
21039;DHT22;10678;51.002;4.786;2022-09-09T17:39:00;20.60;99.90
21039;DHT22;10678;51.002;4.786;2022-09-09T17:41:28;20.40;99.90
21039;DHT22;10678;51.002;4.786;2022-09-09T17:43:54;20.40;99.90
21039;DHT22;10678;51.002;4.786;2022-09-09T17:46:23;20.50;99.90
21039;DHT22;10678;51.002;4.786;2022-09-09T17:48:58;20.60;99.90